Time;durP1;ratioP1;P1;durP2;ratioP2;P2;SDS_P1;SDS_P2;PMS_P1;PMS_P2;Temp;Humidity;BMP_temperature;BMP_pressure;BME280_temperature;BME280_humidity;BME280_pressure;Samples;Min_cycle;Max_cycle;Signal;HPM_P1;HPM_P2
2023/09/07 00:00:31;;;;;;;15.60;9.50;;;;;;;20.75;88.70;95653.63;5029757;28;20234;-73
2023/09/07 00:02:57;;;;;;;13.23;9.30;;;;;;;20.76;89.13;95658.72;5031496;28;20320;-72
2023/09/07 00:05:22;;;;;;;14.63;9.17;;;;;;;20.73;88.96;95655.72;5048805;28;20629;-73
2023/09/07 00:07:48;;;;;;;14.13;9.67;;;;;;;20.70;88.67;95657.03;5034302;28;20286;-72
2023/09/07 00:10:14;;;;;;;12.50;9.47;;;;;;;20.70;88.94;95650.91;5028248;28;20218;-72
2023/09/07 00:12:40;;;;;;;15.90;9.53;;;;;;;20.67;88.73;95649.53;5030731;28;20228;-76
2023/09/07 00:15:06;;;;;;;14.90;9.23;;;;;;;20.68;88.73;95653.78;5043211;28;20245;-76
2023/09/07 00:17:32;;;;;;;16.23;9.60;;;;;;;20.67;89.18;95651.38;5026807;28;20248;-77
2023/09/07 00:19:58;;;;;;;14.10;9.27;;;;;;;20.64;89.68;95652.69;5029199;28;20229;-77
2023/09/07 00:22:25;;;;;;;15.60;9.73;;;;;;;20.56;90.22;95650.41;5043231;28;20328;-76
2023/09/07 00:24:51;;;;;;;15.77;10.27;;;;;;;20.51;91.32;95654.88;5041309;28;20797;-77
2023/09/07 00:27:16;;;;;;;15.67;10.13;;;;;;;20.53;91.10;95660.75;5042006;28;20226;-76
2023/09/07 00:29:42;;;;;;;15.80;10.63;;;;;;;20.56;91.30;95652.28;5033475;28;20233;-76
2023/09/07 00:32:07;;;;;;;14.93;9.90;;;;;;;20.55;91.93;95648.81;5050812;28;20231;-76
2023/09/07 00:34:33;;;;;;;15.67;9.87;;;;;;;20.57;92.27;95657.34;5030946;28;20229;-77
2023/09/07 00:37:00;;;;;;;16.33;10.33;;;;;;;20.50;92.91;95662.03;5034190;28;20221;-76
2023/09/07 00:39:25;;;;;;;15.07;10.27;;;;;;;20.47;92.94;95661.72;5052427;28;20233;-77
2023/09/07 00:41:51;;;;;;;15.83;10.23;;;;;;;20.46;92.99;95655.59;5030427;28;20241;-76
2023/09/07 00:44:17;;;;;;;16.07;10.50;;;;;;;20.42;93.44;95659.78;5003748;28;20230;-77
2023/09/07 00:46:44;;;;;;;16.87;10.40;;;;;;;20.43;92.96;95661.41;5046987;28;20272;-77
2023/09/07 00:49:11;;;;;;;16.77;10.27;;;;;;;20.45;92.22;95661.97;5049205;28;20242;-76
2023/09/07 00:51:36;;;;;;;15.77;10.50;;;;;;;20.43;91.86;95652.59;5053665;28;20256;-77
2023/09/07 00:54:02;;;;;;;16.03;10.37;;;;;;;20.42;92.31;95659.00;5037199;28;20564;-76
2023/09/07 00:56:27;;;;;;;17.60;10.17;;;;;;;20.35;92.66;95655.69;5052225;28;20296;-77
2023/09/07 00:58:54;;;;;;;17.07;10.60;;;;;;;20.35;92.44;95648.50;5037931;28;20678;-77
2023/09/07 01:01:20;;;;;;;15.30;10.70;;;;;;;20.33;92.73;95647.13;5050046;28;20297;-77
2023/09/07 01:03:46;;;;;;;18.23;10.83;;;;;;;20.31;92.49;95652.69;5039832;28;20729;-76
2023/09/07 01:06:32;;;;;;;17.10;10.90;;;;;;;20.25;93.16;95652.88;5026667;28;20392;-77
2023/09/07 01:09:00;;;;;;;17.13;10.97;;;;;;;20.30;93.26;95639.66;5041065;28;20232;-76
2023/09/07 01:11:26;;;;;;;21.30;11.07;;;;;;;20.26;93.43;95643.81;5040020;28;20595;-77
2023/09/07 01:13:55;;;;;;;16.50;11.20;;;;;;;20.29;93.31;95649.47;5008332;28;20236;-77
2023/09/07 01:16:21;;;;;;;19.40;11.47;;;;;;;20.32;93.14;95646.34;5028649;28;20222;-78
2023/09/07 01:18:47;;;;;;;18.60;11.53;;;;;;;20.32;93.58;95651.66;5027476;28;20248;-77
2023/09/07 01:21:13;;;;;;;17.27;11.27;;;;;;;20.28;93.73;95647.84;5028141;28;20248;-77
2023/09/07 01:23:41;;;;;;;18.17;11.50;;;;;;;20.28;93.97;95657.69;5022963;28;20665;-77
2023/09/07 01:26:08;;;;;;;19.47;12.27;;;;;;;20.28;93.71;95655.03;5026209;28;20262;-77
2023/09/07 01:28:34;;;;;;;19.07;11.90;;;;;;;20.24;94.18;95652.06;5014552;28;20245;-75
2023/09/07 01:31:01;;;;;;;21.53;12.60;;;;;;;20.14;94.45;95652.66;5047934;28;20222;-76
2023/09/07 01:33:26;;;;;;;19.27;12.43;;;;;;;20.15;94.68;95653.47;5035827;28;20252;-77
2023/09/07 01:35:52;;;;;;;20.80;12.53;;;;;;;20.09;95.34;95657.88;5031004;28;20232;-76
2023/09/07 01:38:18;;;;;;;22.80;12.73;;;;;;;20.12;95.14;95648.63;5008485;28;20230;-78
2023/09/07 01:40:43;;;;;;;18.80;12.97;;;;;;;20.15;95.36;95656.94;5027568;28;20588;-77
2023/09/07 01:43:35;;;;;;;18.40;11.90;;;;;;;20.16;95.39;95649.75;5048760;28;20239;-77
2023/09/07 01:46:32;;;;;;;;;;;;;;;;;;;;;
2023/09/07 01:52:39;;;;;;;21.87;13.13;;;;;;;20.04;96.42;95647.16;5048709;28;20274;-76
2023/09/07 01:55:39;;;;;;;19.53;12.93;;;;;;;19.96;96.91;95650.25;5025416;28;21239;-77
2023/09/07 01:58:05;;;;;;;21.73;13.27;;;;;;;19.95;97.23;95653.94;5043639;28;20237;-77
2023/09/07 02:00:30;;;;;;;21.90;13.03;;;;;;;19.97;97.08;95651.03;5045442;28;20265;-77
2023/09/07 02:02:56;;;;;;;18.37;12.80;;;;;;;19.99;96.67;95647.06;5029473;28;20228;-77
2023/09/07 02:05:21;;;;;;;18.80;12.77;;;;;;;19.99;96.74;95651.63;5045501;28;20282;-77
2023/09/07 02:08:09;;;;;;;19.53;13.13;;;;;;;19.95;96.80;95647.81;5031953;28;20218;-77
2023/09/07 02:11:23;;;;;;;23.53;13.00;;;;;;;19.93;96.95;95649.91;5003841;28;20427;-77
2023/09/07 02:14:16;;;;;;;21.73;13.20;;;;;;;19.94;96.95;95646.22;5003944;28;20276;-76
2023/09/07 02:16:46;;;;;;;19.90;13.07;;;;;;;19.97;96.99;95649.19;4998408;28;20241;-76
2023/09/07 02:19:12;;;;;;;19.43;13.27;;;;;;;19.93;96.56;95647.25;4988680;28;20237;-76
2023/09/07 02:21:37;;;;;;;21.97;13.60;;;;;;;19.95;96.82;95653.94;5020786;28;20226;-77
2023/09/07 02:24:03;;;;;;;23.33;13.57;;;;;;;19.97;96.89;95654.50;5019655;28;20268;-77
2023/09/07 02:26:29;;;;;;;23.27;13.67;;;;;;;19.93;97.11;95650.72;4988098;28;20820;-77
2023/09/07 02:28:54;;;;;;;20.97;13.50;;;;;;;19.88;97.67;95653.28;5004338;28;20276;-77
2023/09/07 02:31:36;;;;;;;19.53;13.10;;;;;;;19.93;96.88;95652.56;5017587;28;20284;-77
2023/09/07 02:34:03;;;;;;;19.53;13.40;;;;;;;19.87;97.74;95656.97;5012193;28;21288;-77
2023/09/07 02:36:29;;;;;;;19.30;13.57;;;;;;;19.87;97.78;95656.97;5020063;28;20230;-76
2023/09/07 02:39:01;;;;;;;19.20;13.03;;;;;;;19.81;98.04;95652.63;5004489;28;20320;-77
2023/09/07 02:42:12;;;;;;;19.20;13.47;;;;;;;19.85;98.00;95652.94;5019805;28;21293;-77
2023/09/07 02:45:01;;;;;;;21.37;13.20;;;;;;;19.85;98.34;95658.25;5034501;28;20777;-77
2023/09/07 02:47:37;;;;;;;20.03;13.20;;;;;;;19.89;97.91;95659.41;5026609;28;20241;-76
2023/09/07 02:51:01;;;;;;;17.73;13.00;;;;;;;19.81;98.35;95663.25;5046033;28;20307;-76
2023/09/07 02:53:26;;;;;;;24.37;13.50;;;;;;;19.81;98.57;95662.44;4973248;28;20243;-77
2023/09/07 02:55:52;;;;;;;20.93;13.83;;;;;;;19.85;98.37;95664.38;4978494;28;20328;-77
2023/09/07 02:58:18;;;;;;;20.83;13.63;;;;;;;19.85;98.69;95652.94;4988720;28;20239;-77
2023/09/07 03:00:55;;;;;;;22.70;13.77;;;;;;;19.84;98.46;95657.47;5027621;28;20225;-77
2023/09/07 03:03:20;;;;;;;21.00;13.67;;;;;;;19.85;98.42;95659.06;5025715;28;20249;-77
2023/09/07 03:05:46;;;;;;;20.47;13.90;;;;;;;19.80;99.11;95658.97;5013212;28;20229;-77
2023/09/07 03:08:12;;;;;;;22.80;13.87;;;;;;;19.78;98.90;95658.41;5008369;28;20226;-76
2023/09/07 03:10:39;;;;;;;21.77;14.13;;;;;;;19.78;99.46;95657.59;5043695;28;20226;-78
2023/09/07 03:13:07;;;;;;;23.87;14.17;;;;;;;19.83;99.62;95655.03;5015906;28;20257;-77
2023/09/07 03:15:33;;;;;;;25.30;14.53;;;;;;;19.82;99.47;95659.53;5014165;28;20234;-75
2023/09/07 03:17:59;;;;;;;22.37;14.57;;;;;;;19.75;100.00;95652.78;5026613;28;20264;-76
2023/09/07 03:20:30;;;;;;;21.23;15.30;;;;;;;19.66;100.00;95652.34;5031252;28;20218;-76
2023/09/07 03:22:56;;;;;;;22.27;14.80;;;;;;;19.70;100.00;95653.50;5040588;28;20256;-76
2023/09/07 03:25:22;;;;;;;28.17;16.40;;;;;;;19.75;100.00;95655.44;5029617;28;20738;-77
2023/09/07 03:27:47;;;;;;;25.63;15.67;;;;;;;19.67;100.00;95658.47;5041448;28;20266;-77
2023/09/07 03:30:13;;;;;;;26.07;15.63;;;;;;;19.54;100.00;95659.53;5032700;28;20228;-76
2023/09/07 03:32:38;;;;;;;28.67;15.90;;;;;;;19.53;100.00;95659.78;5043390;28;20305;-76
2023/09/07 03:35:09;;;;;;;24.50;15.87;;;;;;;19.49;100.00;95664.75;5032674;28;20229;-77
2023/09/07 03:37:35;;;;;;;23.63;15.83;;;;;;;19.52;100.00;95658.16;5027755;28;20252;-77
2023/09/07 03:40:01;;;;;;;22.47;15.00;;;;;;;19.55;100.00;95668.31;5027875;28;20233;-77
2023/09/07 03:42:26;;;;;;;24.43;16.03;;;;;;;19.46;100.00;95663.38;5056053;28;20329;-76
2023/09/07 03:45:01;;;;;;;23.33;15.53;;;;;;;19.53;100.00;95660.59;5333603;22;20215;-75
2023/09/07 03:47:29;;;;;;;25.03;15.80;;;;;;;19.60;100.00;95668.41;5269510;22;20307;-75
2023/09/07 03:50:20;;;;;;;22.37;15.30;;;;;;;19.56;100.00;95675.25;5063446;28;20224;-76
2023/09/07 03:52:46;;;;;;;24.57;16.00;;;;;;;19.60;100.00;95674.53;5073875;28;20331;-75
2023/09/07 03:55:11;;;;;;;22.80;15.60;;;;;;;19.49;100.00;95681.50;5022772;28;20241;-75
2023/09/07 03:57:37;;;;;;;25.07;16.07;;;;;;;19.56;100.00;95686.66;5052846;28;20224;-75
2023/09/07 04:00:41;;;;;;;27.07;16.40;;;;;;;19.48;100.00;95679.91;5019649;28;20220;-75
2023/09/07 04:03:08;;;;;;;25.47;16.33;;;;;;;19.46;100.00;95694.44;5059442;28;21161;-75
2023/09/07 04:05:33;;;;;;;23.97;15.93;;;;;;;19.52;100.00;95684.72;5044087;28;20589;-75
2023/09/07 04:08:07;;;;;;;28.17;16.50;;;;;;;19.45;100.00;95690.16;5042156;28;20247;-75
2023/09/07 04:10:33;;;;;;;25.47;16.60;;;;;;;19.48;100.00;95692.38;5056060;28;20228;-74
2023/09/07 04:12:58;;;;;;;23.23;16.43;;;;;;;19.51;100.00;95683.94;5039516;28;20225;-81
2023/09/07 04:15:26;;;;;;;25.80;16.70;;;;;;;19.38;100.00;95689.50;5057100;28;20217;-81
2023/09/07 04:17:54;;;;;;;24.50;16.50;;;;;;;19.45;100.00;95693.63;5062336;28;20327;-81
2023/09/07 04:20:20;;;;;;;25.57;16.73;;;;;;;19.43;100.00;95685.09;5043124;28;20374;-80
2023/09/07 04:22:45;;;;;;;27.27;16.97;;;;;;;19.48;100.00;95689.72;5057108;28;20442;-80
2023/09/07 04:25:11;;;;;;;28.63;17.17;;;;;;;19.39;100.00;95686.59;5053584;28;20220;-82
2023/09/07 04:27:36;;;;;;;24.47;17.03;;;;;;;19.46;100.00;95683.84;5058938;28;20736;-81
2023/09/07 04:30:16;;;;;;;28.30;17.47;;;;;;;19.41;100.00;95689.03;5043678;28;20618;-81
2023/09/07 04:32:42;;;;;;;26.50;17.90;;;;;;;19.45;100.00;95684.88;4996165;28;20234;-81
2023/09/07 04:35:07;;;;;;;25.83;17.30;;;;;;;19.43;100.00;95687.75;5011001;28;20262;-82
2023/09/07 04:37:47;;;;;;;27.63;16.50;;;;;;;19.39;100.00;95693.78;4989125;28;20239;-81
2023/09/07 04:40:13;;;;;;;24.83;16.67;;;;;;;19.41;100.00;95692.50;4993333;28;20238;-81
2023/09/07 04:42:38;;;;;;;24.47;16.90;;;;;;;19.46;100.00;95692.59;4998988;28;20234;-81
2023/09/07 04:45:05;;;;;;;26.40;17.23;;;;;;;19.43;100.00;95693.06;4994743;28;20969;-82
2023/09/07 04:47:30;;;;;;;26.77;16.97;;;;;;;19.49;100.00;95697.44;4999331;28;20253;-81
2023/09/07 04:49:56;;;;;;;25.27;17.20;;;;;;;19.55;100.00;95706.31;4986066;28;20226;-81
2023/09/07 04:52:23;;;;;;;25.73;17.27;;;;;;;19.46;100.00;95710.38;4988545;28;20226;-81
2023/09/07 04:54:49;;;;;;;28.23;16.73;;;;;;;19.44;100.00;95701.81;4979885;28;20243;-81
2023/09/07 04:57:17;;;;;;;26.93;16.47;;;;;;;19.49;100.00;95707.25;4991047;28;20257;-81
2023/09/07 04:59:45;;;;;;;28.73;17.23;;;;;;;19.44;100.00;95702.63;4944168;28;20242;-82
2023/09/07 05:02:45;;;;;;;24.97;16.60;;;;;;;19.51;100.00;95707.84;4968377;28;20787;-81
2023/09/07 05:05:11;;;;;;;25.97;16.83;;;;;;;19.51;100.00;95709.69;5035288;28;20232;-82
2023/09/07 05:07:36;;;;;;;39.57;22.90;;;;;;;19.51;100.00;95701.72;5052435;28;20224;-83
2023/09/07 05:10:02;;;;;;;23.60;16.73;;;;;;;19.46;100.00;95707.72;5057813;28;20248;-81
2023/09/07 05:12:28;;;;;;;27.67;16.47;;;;;;;19.46;100.00;95711.16;5071007;28;20220;-82
2023/09/07 05:14:53;;;;;;;28.47;17.07;;;;;;;19.39;100.00;95701.75;5043603;28;20228;-82
2023/09/07 05:17:19;;;;;;;28.93;17.40;;;;;;;19.30;100.00;95708.41;5042665;28;20234;-83
2023/09/07 05:20:19;;;;;;;27.57;16.97;;;;;;;19.33;100.00;95707.94;5039424;28;20315;-81
2023/09/07 05:23:20;;;;;;;26.00;16.57;;;;;;;19.39;100.00;95712.38;5038991;28;20236;-83
2023/09/07 05:26:03;;;;;;;26.07;16.43;;;;;;;19.37;100.00;95714.44;5031503;28;20240;-83
2023/09/07 05:28:28;;;;;;;26.63;16.53;;;;;;;19.34;100.00;95714.88;5040319;28;20787;-82
2023/09/07 05:30:54;;;;;;;24.73;15.77;;;;;;;19.33;100.00;95711.41;5032729;28;20236;-83
2023/09/07 05:33:19;;;;;;;26.37;16.50;;;;;;;19.37;100.00;95717.91;5052941;28;20303;-82
2023/09/07 05:35:48;;;;;;;22.43;15.73;;;;;;;19.41;100.00;95707.63;5019694;28;20297;-83
2023/09/07 05:38:13;;;;;;;23.23;15.57;;;;;;;19.44;100.00;95717.75;5054820;28;20224;-83
2023/09/07 05:40:59;;;;;;;26.30;15.97;;;;;;;19.44;100.00;95715.91;5044072;28;20263;-82
2023/09/07 05:43:24;;;;;;;25.03;15.93;;;;;;;19.49;100.00;95715.19;5024904;28;20230;-82
2023/09/07 05:45:50;;;;;;;27.30;15.43;;;;;;;19.49;100.00;95712.56;5006215;28;20317;-82
2023/09/07 05:48:18;;;;;;;25.20;16.33;;;;;;;19.49;100.00;95709.91;5053231;28;20240;-82
2023/09/07 05:50:44;;;;;;;21.77;15.63;;;;;;;19.45;100.00;95716.72;5035590;28;20233;-81
2023/09/07 05:53:19;;;;;;;25.13;16.43;;;;;;;19.48;100.00;95718.91;5032228;28;20225;-81
2023/09/07 05:55:44;;;;;;;24.57;15.23;;;;;;;19.53;100.00;95721.69;5021416;28;20230;-82
2023/09/07 05:58:10;;;;;;;25.47;15.87;;;;;;;19.49;100.00;95716.03;5035876;28;20652;-82
2023/09/07 06:00:36;;;;;;;29.70;16.80;;;;;;;19.59;100.00;95722.56;5042874;28;20233;-82
2023/09/07 06:03:13;;;;;;;26.27;16.13;;;;;;;19.61;100.00;95713.31;5039170;28;20275;-77
2023/09/07 06:06:07;;;;;;;27.47;16.30;;;;;;;19.69;100.00;95714.81;5038051;28;20967;-82
2023/09/07 06:08:45;;;;;;;24.93;16.20;;;;;;;19.79;100.00;95718.47;5038065;28;20236;-81
2023/09/07 06:11:17;;;;;;;25.40;16.10;;;;;;;19.81;100.00;95715.56;5051502;28;20705;-82
2023/09/07 06:13:42;;;;;;;23.20;15.70;;;;;;;19.97;100.00;95720.94;5046924;28;20624;-82
2023/09/07 06:16:08;;;;;;;24.47;15.33;;;;;;;20.06;100.00;95714.19;5051755;28;20236;-82
2023/09/07 06:18:33;;;;;;;27.77;14.13;;;;;;;20.20;99.78;95721.88;5032459;28;20232;-82
2023/09/07 06:20:59;;;;;;;24.57;14.80;;;;;;;20.32;98.12;95723.47;5055904;28;20228;-82
2023/09/07 06:23:24;;;;;;;22.83;14.43;;;;;;;20.35;96.92;95724.84;5040983;28;20767;-81
2023/09/07 06:25:50;;;;;;;24.47;14.53;;;;;;;20.43;97.39;95727.06;5041767;28;20232;-83
2023/09/07 06:28:25;;;;;;;21.37;14.13;;;;;;;20.50;96.02;95727.72;5063486;28;20240;-82
2023/09/07 06:30:51;;;;;;;26.33;13.57;;;;;;;20.51;96.60;95724.84;5051808;28;20221;-82
2023/09/07 06:33:17;;;;;;;21.30;13.07;;;;;;;20.55;95.00;95733.94;5036947;28;20240;-80
2023/09/07 06:35:47;;;;;;;23.40;13.20;;;;;;;20.58;95.39;95736.13;5050035;28;20223;-82
2023/09/07 06:38:13;;;;;;;22.37;13.50;;;;;;;20.60;95.19;95727.91;5036795;28;20229;-81
2023/09/07 06:40:38;;;;;;;22.13;13.50;;;;;;;20.64;95.38;95732.50;5033885;28;20233;-82
2023/09/07 06:43:16;;;;;;;20.40;13.07;;;;;;;20.73;93.92;95732.88;5035731;28;20233;-81
2023/09/07 06:45:42;;;;;;;24.30;15.07;;;;;;;20.82;94.09;95728.78;5034771;28;20229;-81
2023/09/07 06:48:07;;;;;;;22.17;12.70;;;;;;;20.85;92.91;95733.59;5052954;28;20237;-82
2023/09/07 06:50:44;;;;;;;19.63;12.67;;;;;;;20.75;93.60;95728.94;5055336;28;20229;-82
2023/09/07 06:53:10;;;;;;;26.60;13.33;;;;;;;20.76;92.69;95741.19;5048216;28;20642;-82
2023/09/07 06:55:35;;;;;;;20.30;11.80;;;;;;;20.73;93.01;95741.66;5055913;28;20229;-81
2023/09/07 06:58:01;;;;;;;19.00;11.90;;;;;;;20.80;91.14;95741.53;5052199;28;20241;-81
2023/09/07 07:00:27;;;;;;;19.33;11.80;;;;;;;20.77;90.49;95734.84;5059374;28;20279;-82
2023/09/07 07:02:52;;;;;;;18.93;11.23;;;;;;;20.77;89.37;95736.69;5039335;28;20229;-83
2023/09/07 07:05:18;;;;;;;20.37;10.90;;;;;;;20.86;88.33;95729.91;5056426;28;20225;-81
2023/09/07 07:07:43;;;;;;;19.00;10.97;;;;;;;20.89;89.28;95729.44;5038447;28;20254;-82
2023/09/07 07:10:09;;;;;;;17.83;10.53;;;;;;;21.08;87.33;95722.81;5056090;28;20229;-81
2023/09/07 07:12:34;;;;;;;16.77;10.07;;;;;;;21.17;86.55;95721.34;5059038;28;20229;-83
2023/09/07 07:15:01;;;;;;;16.60;10.70;;;;;;;21.26;86.98;95719.84;5041895;28;20367;-82
2023/09/07 07:17:27;;;;;;;17.63;11.17;;;;;;;21.32;88.35;95729.53;5054234;28;20537;-80
2023/09/07 07:19:52;;;;;;;18.47;10.80;;;;;;;21.16;87.00;95730.38;5060497;28;20762;-81
2023/09/07 07:22:18;;;;;;;19.17;11.00;;;;;;;21.19;87.77;95727.22;5056787;28;20689;-82
2023/09/07 07:24:43;;;;;;;17.67;10.90;;;;;;;21.22;87.48;95729.41;5035941;28;20230;-81
2023/09/07 07:27:10;;;;;;;17.70;9.40;;;;;;;21.29;82.82;95740.69;5019831;28;20236;-75
2023/09/07 07:29:36;;;;;;;17.53;9.43;;;;;;;21.38;82.72;95738.38;5024951;28;20304;-75
2023/09/07 07:32:03;;;;;;;16.07;8.90;;;;;;;21.43;81.92;95743.78;5039802;28;20244;-76
2023/09/07 07:34:29;;;;;;;14.80;9.20;;;;;;;21.49;80.67;95746.25;5041368;28;20231;-76
2023/09/07 07:36:54;;;;;;;14.17;8.87;;;;;;;21.53;80.23;95745.78;5041016;28;20232;-75
2023/09/07 07:39:20;;;;;;;13.63;8.97;;;;;;;21.48;81.38;95747.31;5042420;28;20224;-74
2023/09/07 07:41:46;;;;;;;13.97;8.97;;;;;;;21.62;79.29;95752.28;5058230;28;20221;-75
2023/09/07 07:44:11;;;;;;;16.20;9.30;;;;;;;21.54;81.00;95748.22;5057446;28;20702;-75
2023/09/07 07:46:37;;;;;;;13.57;8.93;;;;;;;21.58;80.07;95751.16;5034110;28;20264;-75
2023/09/07 07:49:02;;;;;;;11.45;8.15;;;;;;;21.60;79.12;95754.38;5052038;28;20224;-76
2023/09/07 07:51:28;;;;;;;15.40;8.43;;;;;;;21.61;78.17;95750.69;5035893;28;20617;-75
2023/09/07 07:53:55;;;;;;;14.23;7.63;;;;;;;21.52;77.25;95755.63;5053447;28;20225;-75
2023/09/07 07:56:21;;;;;;;12.53;7.27;;;;;;;21.51;78.52;95748.69;5040448;28;20884;-75
2023/09/07 07:58:46;;;;;;;12.43;7.80;;;;;;;21.52;77.90;95749.50;5052210;28;20228;-75
2023/09/07 08:01:16;;;;;;;14.60;7.90;;;;;;;21.58;79.41;95756.50;5055785;28;20229;-75
2023/09/07 08:03:41;;;;;;;12.83;8.23;;;;;;;21.65;79.24;95749.13;5035856;28;20286;-75
2023/09/07 08:06:07;;;;;;;13.50;8.10;;;;;;;21.69;80.42;95743.03;5058149;28;20237;-76
2023/09/07 08:08:32;;;;;;;12.67;8.00;;;;;;;21.69;77.81;95747.56;5037881;28;20233;-75
2023/09/07 08:10:59;;;;;;;12.38;7.78;;;;;;;21.71;78.36;95750.81;5053375;28;20924;-75
2023/09/07 08:13:25;;;;;;;13.03;7.60;;;;;;;21.76;77.31;95742.84;5050367;28;20236;-75
2023/09/07 08:15:50;;;;;;;12.00;7.45;;;;;;;21.85;75.32;95747.53;5060525;28;20237;-74
2023/09/07 08:18:16;;;;;;;17.30;10.98;;;;;;;21.85;77.14;95744.84;5056708;28;20255;-74
2023/09/07 08:20:41;;;;;;;12.98;8.77;;;;;;;21.92;77.43;95734.03;5050141;28;20607;-75
2023/09/07 08:23:09;;;;;;;15.30;8.75;;;;;;;22.08;76.33;95743.78;5047354;28;20854;-75
2023/09/07 08:25:35;;;;;;;12.85;8.50;;;;;;;22.15;74.99;95744.41;5032805;28;20241;-75
2023/09/07 08:28:00;;;;;;;13.25;8.23;;;;;;;22.26;74.26;95732.75;5056147;28;20316;-73
2023/09/07 08:30:26;;;;;;;14.75;9.00;;;;;;;22.34;73.89;95736.84;5032496;28;20226;-74
2023/09/07 08:32:51;;;;;;;14.80;8.27;;;;;;;22.37;75.51;95726.47;5035340;28;20237;-75
2023/09/07 08:35:17;;;;;;;18.03;12.27;;;;;;;22.50;74.70;95735.91;5035825;28;20245;-75
2023/09/07 08:37:57;;;;;;;11.80;8.10;;;;;;;22.67;73.90;95741.97;5053438;28;20651;-74
2023/09/07 08:40:23;;;;;;;15.30;8.15;;;;;;;22.76;72.99;95743.91;5029027;28;20321;-74
2023/09/07 08:42:49;;;;;;;13.07;7.90;;;;;;;22.86;71.47;95739.69;5033504;28;20320;-75
2023/09/07 08:45:15;;;;;;;10.50;7.68;;;;;;;22.91;71.72;95737.88;5036659;28;20233;-75
2023/09/07 08:47:40;;;;;;;16.08;7.95;;;;;;;22.94;71.75;95726.69;5037594;28;20241;-74
2023/09/07 08:50:07;;;;;;;11.45;7.90;;;;;;;23.03;70.67;95730.50;5035402;28;20263;-75
2023/09/07 08:52:33;;;;;;;14.32;7.72;;;;;;;23.08;70.46;95737.72;5021400;28;20236;-74
2023/09/07 08:55:00;;;;;;;12.10;7.65;;;;;;;23.15;68.78;95735.63;5035791;28;20752;-73
2023/09/07 08:57:28;;;;;;;12.77;7.90;;;;;;;23.18;68.95;95724.44;5032321;28;20257;-74
2023/09/07 08:59:53;;;;;;;12.82;7.70;;;;;;;23.30;69.78;95727.72;5046085;28;20233;-75
2023/09/07 09:02:19;;;;;;;11.65;7.50;;;;;;;23.41;68.46;95727.53;5035050;28;20633;-74
2023/09/07 09:04:45;;;;;;;10.40;6.75;;;;;;;23.53;66.36;95729.19;5037245;28;20229;-74
2023/09/07 09:07:10;;;;;;;10.27;6.97;;;;;;;23.43;65.74;95735.28;5038029;28;20281;-74
2023/09/07 09:09:38;;;;;;;14.95;7.60;;;;;;;23.37;66.97;95731.00;5024444;28;20239;-74
2023/09/07 09:12:10;;;;;;;11.13;7.55;;;;;;;23.51;67.93;95728.66;5054362;28;20255;-74
2023/09/07 09:14:35;;;;;;;11.85;7.60;;;;;;;23.59;68.01;95728.97;5036601;28;20236;-74
2023/09/07 09:17:10;;;;;;;11.40;7.32;;;;;;;23.62;67.35;95720.41;5034172;28;20229;-75
2023/09/07 09:19:36;;;;;;;12.27;7.22;;;;;;;23.78;66.55;95718.63;5047425;28;20224;-75
2023/09/07 09:22:03;;;;;;;9.48;7.05;;;;;;;23.89;66.88;95728.28;5035429;28;20271;-75
2023/09/07 09:24:32;;;;;;;11.43;7.60;;;;;;;23.86;66.44;95721.56;5050651;28;20885;-74
2023/09/07 09:26:57;;;;;;;14.27;7.30;;;;;;;23.85;65.76;95717.31;5033407;28;20233;-75
2023/09/07 09:29:28;;;;;;;11.68;7.00;;;;;;;23.88;65.00;95714.09;5052412;28;20708;-75
2023/09/07 09:31:54;;;;;;;11.43;6.90;;;;;;;23.93;63.90;95716.00;5012901;28;20273;-74
2023/09/07 09:34:41;;;;;;;13.00;6.90;;;;;;;24.01;64.48;95710.13;5049127;28;20228;-75
2023/09/07 09:37:12;;;;;;;12.80;7.28;;;;;;;23.91;65.08;95715.44;5024628;28;20247;-75
2023/09/07 09:39:38;;;;;;;13.23;7.30;;;;;;;23.85;65.25;95706.63;5033142;28;20307;-74
2023/09/07 09:42:04;;;;;;;16.88;6.88;;;;;;;23.86;65.11;95716.22;5039604;28;20240;-74
2023/09/07 09:44:29;;;;;;;10.73;6.82;;;;;;;23.90;64.33;95701.28;5034927;28;20247;-73
2023/09/07 09:46:55;;;;;;;8.50;6.53;;;;;;;23.95;63.97;95708.50;5035029;28;20234;-73
2023/09/07 09:49:21;;;;;;;10.68;6.78;;;;;;;23.84;65.21;95699.66;5053111;28;20230;-73
2023/09/07 09:51:51;;;;;;;10.85;7.03;;;;;;;23.93;64.71;95695.38;5035377;28;20348;-73
2023/09/07 09:54:17;;;;;;;10.63;6.72;;;;;;;24.02;63.62;95704.53;5035547;28;20229;-75
2023/09/07 09:56:43;;;;;;;11.98;7.22;;;;;;;24.02;63.38;95699.19;5048967;28;20225;-75
2023/09/07 09:59:08;;;;;;;10.18;6.50;;;;;;;23.84;62.32;95696.16;5030875;28;20776;-76
2023/09/07 10:01:41;;;;;;;10.70;6.85;;;;;;;23.82;63.70;95703.66;5028781;28;21206;-82
2023/09/07 10:04:07;;;;;;;14.18;6.60;;;;;;;23.83;63.74;95697.25;5014051;28;20247;-81
2023/09/07 10:06:33;;;;;;;9.32;6.47;;;;;;;23.76;63.00;95697.50;5056572;28;20613;-81
2023/09/07 10:08:59;;;;;;;11.10;6.78;;;;;;;23.70;65.37;95687.03;5053222;28;20234;-80
2023/09/07 10:11:31;;;;;;;10.20;6.70;;;;;;;23.67;64.67;95693.69;5048069;28;20259;-81
2023/09/07 10:14:03;;;;;;;9.05;6.43;;;;;;;23.65;63.46;95692.34;5013701;28;20232;-81
2023/09/07 10:17:10;;;;;;;9.55;6.50;;;;;;;23.82;64.66;95684.94;5029711;28;20316;-80
2023/09/07 10:20:05;;;;;;;11.25;6.22;;;;;;;23.91;62.69;95688.69;5020766;28;20224;-81
2023/09/07 10:22:30;;;;;;;10.38;6.28;;;;;;;23.88;62.68;95687.34;5052820;28;20232;-78
2023/09/07 10:25:25;;;;;;;8.68;6.18;;;;;;;23.77;63.18;95687.59;5049224;28;20298;-79
2023/09/07 10:27:51;;;;;;;10.52;6.68;;;;;;;23.77;64.04;95677.69;5032101;28;20237;-80
2023/09/07 10:30:19;;;;;;;10.52;6.30;;;;;;;23.77;62.66;95680.38;5032587;28;20236;-79
2023/09/07 10:32:45;;;;;;;10.30;6.55;;;;;;;23.67;63.81;95672.31;5023694;28;20225;-80
2023/09/07 10:35:16;;;;;;;10.88;6.28;;;;;;;23.67;64.84;95671.53;5042114;28;20235;-80
2023/09/07 10:37:45;;;;;;;12.40;6.53;;;;;;;23.61;63.36;95673.38;5054295;28;20229;-79
2023/09/07 10:40:11;;;;;;;9.13;6.50;;;;;;;23.49;63.60;95672.78;5053104;28;20248;-79
2023/09/07 10:42:37;;;;;;;12.30;6.93;;;;;;;23.47;64.64;95680.28;5062818;28;20633;-79
2023/09/07 10:45:10;;;;;;;13.45;7.07;;;;;;;23.57;63.18;95674.97;5056281;28;20221;-77
2023/09/07 10:47:36;;;;;;;10.27;6.60;;;;;;;23.62;63.34;95674.97;5053104;28;20304;-79
2023/09/07 10:50:03;;;;;;;11.55;6.82;;;;;;;23.80;62.65;95679.03;5026413;28;20312;-78
2023/09/07 10:52:28;;;;;;;10.40;6.55;;;;;;;23.94;63.02;95675.59;5056669;28;20755;-80
2023/09/07 10:54:59;;;;;;;14.18;8.70;;;;;;;24.09;61.39;95675.69;5037616;28;20228;-79
2023/09/07 10:57:24;;;;;;;17.08;10.45;;;;;;;24.05;61.86;95674.56;5037221;28;20767;-79
2023/09/07 10:59:54;;;;;;;14.95;7.93;;;;;;;23.98;63.01;95674.00;5035269;28;20229;-79
2023/09/07 11:02:20;;;;;;;11.43;6.82;;;;;;;23.95;63.29;95671.06;5050518;28;20698;-80
2023/09/07 11:04:45;;;;;;;10.05;6.32;;;;;;;24.00;64.23;95674.53;5045059;28;20255;-78
2023/09/07 11:07:11;;;;;;;10.00;6.38;;;;;;;24.00;62.38;95679.88;5057853;28;20279;-80
2023/09/07 11:09:42;;;;;;;10.27;6.45;;;;;;;23.95;61.66;95673.75;5055139;28;20288;-78
2023/09/07 11:12:08;;;;;;;9.85;6.40;;;;;;;23.85;63.56;95666.50;5052948;28;20241;-79
2023/09/07 11:14:34;;;;;;;10.07;6.22;;;;;;;23.82;64.50;95664.34;5036401;28;20230;-79
2023/09/07 11:17:01;;;;;;;11.32;5.88;;;;;;;23.78;63.19;95665.94;5056366;28;20233;-79
2023/09/07 11:19:26;;;;;;;8.90;5.63;;;;;;;23.72;63.61;95664.31;5036275;28;20300;-79
2023/09/07 11:21:54;;;;;;;8.32;5.65;;;;;;;23.62;63.71;95660.81;5056009;28;20240;-80
2023/09/07 11:24:19;;;;;;;9.38;5.70;;;;;;;23.64;63.33;95666.72;5054221;28;20303;-79
2023/09/07 11:26:46;;;;;;;10.02;6.07;;;;;;;23.62;65.41;95663.50;5058032;28;20351;-80
2023/09/07 11:29:15;;;;;;;9.85;5.80;;;;;;;23.48;64.90;95662.38;5053859;28;20324;-79
2023/09/07 11:31:41;;;;;;;10.90;5.43;;;;;;;23.48;64.04;95662.38;5021117;28;20253;-78